Phnom Penh, Cambodia

7:37 PM ICT on July 23, 2016 (GMT +0700)
Pochentong International | | Change Station

Elev 33 ft 11.55 °N, 104.84 °E | Updated 1 hour ago

Scattered Clouds
Scattered Clouds
86 °F
Feels Like 97 °F
N
1
Wind Variable Wind from Variable

Today
High -- | Low -- °F
--% Chance of Precip.
Yesterday
High -- | Low -- °F
Precip. -- in
Pressure 29.74 in
Visibility 5.6 miles
Clouds Scattered Clouds 1500 ft
Few 1700 ft
Scattered Clouds 4000 ft
Heat Index 97 °F
Dew Point 77 °F
Humidity 74%
Rainfall 0.00 in
Snow Depth Not available.
5:46 AM 6:27 PM
Waning Gibbous, 85% visible
METAR VDPP 231130Z VRB01KT 9000 SCT015 FEW017CB SCT040 30/25 Q1007 CB:S/W
Pressure 29.74 in
Visibility 5.6 miles
Clouds Scattered Clouds 1500 ft
Few 1700 ft
Scattered Clouds 4000 ft
Heat Index 97 °F
Dew Point 77 °F
Humidity 74%
Rainfall 0.00 in
Snow Depth Not available.
5:46 AM 6:27 PM
Waning Gibbous, 85% visible
METAR VDPP 231130Z VRB01KT 9000 SCT015 FEW017CB SCT040 30/25 Q1007 CB:S/W

10-Day Weather Forecast

No radar image for this location.
×

Almanac

Astronomy

Jul. 23, 2016 Rise Set
Actual Time
Civil Twilight
Nautical Twilight
Astronomical Twilight
Moon
Length of Visible Light
Length of Day
Tomorrow will be .
, % of the Moon is Illuminated

Today's Extremes

Country Highs Country Lows

Community

WunderPhotos

Upload Photos

1,926,815 photos uploaded!

WunderBlog® & News

Nearby

Air Quality

  Air Quality AQ Index Pollutant
Not available.

Snow Depth

Station Depth Elevation

Earthquake Activity

City Distance Mag. Time & Date
Minimum magnitude displayed is 2.5.

Coastal Water Temperatures

Place Temperature

Stations

Nearby Weather Stations

Station Location Temp. Windchill Dew Point Humidity Wind Precip. Elev Updated Type